Time;durP1;ratioP1;P1;durP2;ratioP2;P2;SDS_P1;SDS_P2;PMS_P1;PMS_P2;Temp;Humidity;BMP_temperature;BMP_pressure;BME280_temperature;BME280_humidity;BME280_pressure;Samples;Min_cycle;Max_cycle;Signal;HPM_P1;HPM_P2
2023/03/10 00:01:38;;;;;;;1999.90;999.90;;;;;;;8.03;100.00;96701.31;5091362;28;20024;-75
2023/03/10 00:04:04;;;;;;;1999.90;999.90;;;;;;;8.05;100.00;96709.16;5091404;28;20372;-76
2023/03/10 00:06:33;;;;;;;1999.90;999.90;;;;;;;7.97;100.00;96699.81;5091616;28;20161;-75
2023/03/10 00:08:59;;;;;;;1999.90;999.90;;;;;;;8.00;100.00;96703.84;5091252;28;20028;-76
2023/03/10 00:11:24;;;;;;;1999.90;999.90;;;;;;;8.04;100.00;96696.66;5091250;28;20582;-75
2023/03/10 00:13:50;;;;;;;1999.90;999.90;;;;;;;7.98;100.00;96708.81;5091047;28;20036;-76
2023/03/10 00:16:25;;;;;;;1999.90;999.90;;;;;;;7.91;100.00;96697.53;5090966;28;20032;-76
2023/03/10 00:18:51;;;;;;;1999.90;999.90;;;;;;;7.86;100.00;96684.06;5090181;28;20039;-76
2023/03/10 00:21:19;;;;;;;1999.90;999.90;;;;;;;7.85;100.00;96690.59;5091237;28;20024;-75
2023/03/10 00:23:45;;;;;;;1999.90;999.90;;;;;;;7.70;100.00;96689.06;5091071;28;20028;-76
2023/03/10 00:26:13;;;;;;;1999.90;999.90;;;;;;;7.77;100.00;96691.34;5090827;28;20052;-76
2023/03/10 00:28:39;;;;;;;1999.90;999.90;;;;;;;7.69;100.00;96684.72;5091062;28;20055;-75
2023/03/10 00:31:19;;;;;;;1999.90;999.90;;;;;;;7.73;100.00;96693.88;5090950;28;20480;-75
2023/03/10 00:33:45;;;;;;;1999.90;999.90;;;;;;;7.76;100.00;96690.53;5090899;28;20089;-76
2023/03/10 00:36:24;;;;;;;1999.90;999.90;;;;;;;7.71;100.00;96689.84;5091330;28;20091;-76
2023/03/10 00:38:51;;;;;;;1999.90;999.90;;;;;;;7.62;100.00;96683.53;5090930;28;20476;-77
2023/03/10 00:41:23;;;;;;;1999.90;999.90;;;;;;;7.60;100.00;96691.19;5090857;28;20035;-75
2023/03/10 00:43:48;;;;;;;1999.90;999.90;;;;;;;7.58;100.00;96688.00;5091183;28;20028;-75
2023/03/10 00:46:14;;;;;;;1999.90;999.90;;;;;;;7.49;100.00;96685.97;5091070;28;20074;-76
2023/03/10 00:48:40;;;;;;;1999.90;999.90;;;;;;;7.43;100.00;96684.50;5090629;28;20032;-75
2023/03/10 00:51:06;;;;;;;1999.90;999.90;;;;;;;7.41;100.00;96681.28;5091147;28;20036;-76
2023/03/10 00:53:34;;;;;;;1999.90;999.90;;;;;;;7.42;100.00;96674.72;5090696;28;20016;-76
2023/03/10 00:56:02;;;;;;;1999.90;999.90;;;;;;;7.45;100.00;96673.31;5090500;28;20035;-76
2023/03/10 00:58:28;;;;;;;1999.90;999.90;;;;;;;7.43;100.00;96662.72;5090498;28;20111;-77
2023/03/10 01:00:54;;;;;;;1999.90;999.90;;;;;;;7.34;100.00;96650.97;5081743;28;20029;-75
2023/03/10 01:03:21;;;;;;;1999.90;999.90;;;;;;;7.28;100.00;96644.03;5074419;28;20552;-76
2023/03/10 01:05:48;;;;;;;1999.90;999.90;;;;;;;7.29;100.00;96642.94;5074611;28;20024;-76
2023/03/10 01:08:14;;;;;;;1999.90;999.90;;;;;;;7.19;100.00;96635.00;5074301;28;20031;-75
2023/03/10 01:10:39;;;;;;;1999.90;999.90;;;;;;;7.14;100.00;96635.09;5074473;28;20013;-75
2023/03/10 01:13:05;;;;;;;1999.90;999.90;;;;;;;7.11;100.00;96627.56;5074222;28;20045;-75
2023/03/10 01:15:30;;;;;;;1999.90;999.90;;;;;;;7.04;100.00;96624.47;5074513;28;20595;-76
2023/03/10 01:17:56;;;;;;;1999.90;999.90;;;;;;;7.09;100.00;96620.81;5074440;28;20028;-76
2023/03/10 01:20:21;;;;;;;1999.90;999.90;;;;;;;6.98;100.00;96612.09;5074722;28;20086;-76
2023/03/10 01:22:46;;;;;;;1999.90;999.90;;;;;;;7.04;100.00;96619.03;5074253;28;20461;-76
2023/03/10 01:25:13;;;;;;;1999.90;999.90;;;;;;;7.04;100.00;96610.06;5074292;28;20028;-76
2023/03/10 01:27:39;;;;;;;1999.90;999.90;;;;;;;6.98;100.00;96607.44;5074676;28;20029;-75
2023/03/10 01:30:05;;;;;;;1999.90;999.90;;;;;;;6.93;100.00;96596.69;5077614;28;20107;-77
2023/03/10 01:32:30;;;;;;;1999.90;999.90;;;;;;;6.90;100.00;96600.03;5074106;28;20484;-73
2023/03/10 01:34:56;;;;;;;1999.90;999.90;;;;;;;6.85;100.00;96592.00;5073788;28;20029;-76
2023/03/10 01:37:21;;;;;;;1999.90;999.90;;;;;;;6.90;100.00;96597.31;5074200;28;20039;-76
2023/03/10 01:39:46;;;;;;;1999.90;999.90;;;;;;;6.87;100.00;96591.66;5073722;28;20017;-76
2023/03/10 01:42:12;;;;;;;1999.90;999.90;;;;;;;6.69;100.00;96579.03;5074813;28;20036;-76
2023/03/10 01:44:38;;;;;;;1999.90;999.90;;;;;;;6.73;100.00;96578.13;5074474;28;20053;-76
2023/03/10 01:47:03;;;;;;;1999.90;999.90;;;;;;;6.70;100.00;96573.31;5073749;28;20039;-74
2023/03/10 01:49:40;;;;;;;1999.90;999.90;;;;;;;6.75;100.00;96578.63;5073104;28;20031;-76
2023/03/10 01:52:22;;;;;;;1999.90;999.90;;;;;;;6.63;100.00;96582.97;5077265;28;20033;-78
2023/03/10 01:54:50;;;;;;;1999.90;999.90;;;;;;;6.71;100.00;96572.19;5076876;28;20473;-75
2023/03/10 01:57:21;;;;;;;1999.90;999.90;;;;;;;6.63;100.00;96562.03;5092166;28;20020;-75
2023/03/10 01:59:46;;;;;;;1999.90;999.90;;;;;;;6.66;100.00;96557.91;5093961;28;20611;-76
2023/03/10 02:02:12;;;;;;;1999.90;999.90;;;;;;;6.65;100.00;96562.53;5101229;28;20018;-75
2023/03/10 02:04:47;;;;;;;1999.90;999.90;;;;;;;6.66;100.00;96556.00;5112315;28;20027;-75
2023/03/10 02:07:16;;;;;;;1999.90;999.90;;;;;;;6.65;100.00;96545.41;5114114;28;20484;-76
2023/03/10 02:09:47;;;;;;;1999.90;999.90;;;;;;;6.68;100.00;96548.34;5114210;28;20028;-75
2023/03/10 02:12:14;;;;;;;1999.90;999.90;;;;;;;6.63;100.00;96547.66;5113567;28;20208;-75
2023/03/10 02:14:41;;;;;;;1999.90;999.90;;;;;;;6.74;100.00;96549.03;5113774;28;20042;-75
2023/03/10 02:17:10;;;;;;;1999.90;999.90;;;;;;;6.67;100.00;96540.50;5113900;28;20045;-74
2023/03/10 02:20:03;;;;;;;1999.90;999.90;;;;;;;6.57;100.00;96538.81;5114018;28;20471;-75
2023/03/10 02:22:30;;;;;;;1999.90;999.90;;;;;;;6.52;100.00;96532.66;5114187;28;20036;-76
2023/03/10 02:25:17;;;;;;;1999.90;999.90;;;;;;;6.36;100.00;96527.56;5114101;28;20026;-76
2023/03/10 02:27:43;;;;;;;1999.90;999.90;;;;;;;6.44;100.00;96535.00;5113564;28;20059;-75
2023/03/10 02:30:12;;;;;;;1999.90;999.90;;;;;;;6.31;100.00;96522.25;5113864;28;20062;-75
2023/03/10 02:32:44;;;;;;;1999.90;999.90;;;;;;;6.27;100.00;96506.84;5113909;28;20028;-75
2023/03/10 02:35:11;;;;;;;1999.90;999.90;;;;;;;6.26;100.00;96516.94;5113926;28;20024;-75
2023/03/10 02:37:36;;;;;;;1999.90;999.90;;;;;;;6.28;100.00;96508.47;5113414;28;20027;-75
2023/03/10 02:40:28;;;;;;;1999.90;999.90;;;;;;;6.30;100.00;96507.06;5113204;28;20160;-75
2023/03/10 02:42:54;;;;;;;1999.90;999.90;;;;;;;6.31;100.00;96507.84;5106286;28;20036;-76
2023/03/10 02:45:20;;;;;;;1999.90;999.90;;;;;;;6.21;100.00;96500.72;5112099;28;20024;-75
2023/03/10 02:47:45;;;;;;;1999.90;999.90;;;;;;;6.24;100.00;96497.41;5113042;28;20502;-75
2023/03/10 02:50:14;;;;;;;1999.90;999.90;;;;;;;6.19;100.00;96497.53;5113575;28;20051;-76
2023/03/10 02:52:45;;;;;;;1999.90;999.90;;;;;;;6.13;100.00;96490.59;5112996;28;20020;-75
2023/03/10 02:55:17;;;;;;;1999.90;999.90;;;;;;;6.23;100.00;96495.81;5112975;28;20022;-75
2023/03/10 02:57:42;;;;;;;1999.90;999.90;;;;;;;6.24;100.00;96494.69;5113092;28;20448;-76
2023/03/10 03:00:10;;;;;;;1999.90;999.90;;;;;;;6.26;100.00;96499.84;5113096;28;20107;-76
2023/03/10 03:02:35;;;;;;;1999.90;999.90;;;;;;;6.20;100.00;96495.63;5111922;28;20114;-75
2023/03/10 03:05:00;;;;;;;1999.90;999.90;;;;;;;6.07;100.00;96480.94;5113055;28;20110;-75
2023/03/10 03:07:26;;;;;;;1999.90;999.90;;;;;;;6.15;100.00;96487.56;5113706;28;20119;-75
2023/03/10 03:09:52;;;;;;;1999.90;999.90;;;;;;;6.06;100.00;96473.09;5112733;28;20027;-76
2023/03/10 03:12:17;;;;;;;1999.90;999.90;;;;;;;5.98;100.00;96466.47;5112731;28;20111;-76
2023/03/10 03:14:43;;;;;;;1999.90;999.90;;;;;;;6.02;100.00;96467.47;5112876;28;20048;-74
2023/03/10 03:17:08;;;;;;;1999.90;999.90;;;;;;;5.97;100.00;96469.50;5113820;28;20030;-78
2023/03/10 03:19:33;;;;;;;1999.90;999.90;;;;;;;5.90;100.00;96465.28;5114140;28;20035;-75
2023/03/10 03:21:59;;;;;;;1999.90;999.90;;;;;;;5.99;100.00;96468.06;5113030;28;20060;-76
2023/03/10 03:24:25;;;;;;;1999.90;999.90;;;;;;;5.97;100.00;96455.91;5111771;28;20011;-76
2023/03/10 03:26:51;;;;;;;1999.90;999.90;;;;;;;6.00;100.00;96456.13;5112361;28;20039;-75
2023/03/10 03:29:16;;;;;;;1999.90;999.90;;;;;;;6.03;100.00;96452.81;5112623;28;20072;-74
2023/03/10 03:31:42;;;;;;;1999.90;999.90;;;;;;;6.05;100.00;96450.56;5112203;28;20031;-76
2023/03/10 03:34:08;;;;;;;1999.90;999.90;;;;;;;6.04;100.00;96451.69;5112146;28;20028;-75
2023/03/10 03:36:34;;;;;;;1999.90;999.90;;;;;;;5.93;100.00;96440.25;5112157;28;20028;-76
2023/03/10 03:38:59;;;;;;;1999.90;999.90;;;;;;;5.93;100.00;96437.53;5112260;28;20042;-75
2023/03/10 03:41:24;;;;;;;1999.90;999.90;;;;;;;5.79;100.00;96425.06;5112305;28;20032;-76
2023/03/10 03:43:50;;;;;;;1999.90;999.90;;;;;;;5.79;100.00;96431.28;5112131;28;20063;-76
2023/03/10 03:46:15;;;;;;;1999.90;999.90;;;;;;;5.87;100.00;96437.94;5079535;28;20024;-75
2023/03/10 03:48:40;;;;;;;1999.90;999.90;;;;;;;5.85;100.00;96432.00;5090983;28;20027;-76
2023/03/10 03:51:06;;;;;;;1999.90;999.90;;;;;;;5.84;100.00;96423.03;5083838;28;20021;-76
2023/03/10 03:53:32;;;;;;;1999.90;999.90;;;;;;;5.91;100.00;96431.63;5070772;28;20077;-75
2023/03/10 03:55:57;;;;;;;1999.90;999.90;;;;;;;5.90;100.00;96421.84;5070811;28;20024;-75
2023/03/10 03:58:23;;;;;;;1999.90;999.90;;;;;;;5.85;100.00;96429.28;5072181;28;20028;-75
2023/03/10 04:00:48;;;;;;;1999.90;999.90;;;;;;;5.83;100.00;96428.75;5073750;28;20027;-77
2023/03/10 04:03:14;;;;;;;1999.90;999.90;;;;;;;5.86;100.00;96420.03;5071050;28;20020;-75
2023/03/10 04:05:40;;;;;;;1999.90;999.90;;;;;;;5.88;100.00;96412.41;5070244;28;20138;-76
2023/03/10 04:08:06;;;;;;;1999.90;999.90;;;;;;;5.94;100.00;96411.22;5070409;28;20024;-75
2023/03/10 04:10:32;;;;;;;1999.90;999.90;;;;;;;5.82;100.00;96414.41;5069120;28;20362;-76
2023/03/10 04:12:57;;;;;;;1999.90;999.90;;;;;;;5.69;100.00;96414.41;5070362;28;20055;-75
2023/03/10 04:15:23;;;;;;;1999.90;999.90;;;;;;;5.56;100.00;96409.78;5070215;28;20033;-75
2023/03/10 04:17:48;;;;;;;1999.90;999.90;;;;;;;5.68;100.00;96410.88;5070353;28;20035;-75
2023/03/10 04:20:13;;;;;;;1999.90;999.90;;;;;;;5.63;100.00;96405.56;5070101;28;20428;-76
2023/03/10 04:22:39;;;;;;;1999.90;999.90;;;;;;;5.64;100.00;96404.44;5070392;28;20139;-76
2023/03/10 04:25:07;;;;;;;1999.90;999.90;;;;;;;5.56;100.00;96404.34;5070050;28;20035;-78
2023/03/10 04:27:33;;;;;;;1999.90;999.90;;;;;;;5.55;100.00;96403.56;5068825;28;20036;-75
2023/03/10 04:29:58;;;;;;;1999.90;999.90;;;;;;;5.54;100.00;96390.31;5070604;28;20024;-75
2023/03/10 04:32:24;;;;;;;1999.90;999.90;;;;;;;5.60;100.00;96394.53;5070712;28;20036;-76
2023/03/10 04:34:49;;;;;;;1999.90;999.90;;;;;;;5.66;100.00;96396.03;5069767;28;20111;-75
2023/03/10 04:37:15;;;;;;;1999.90;999.90;;;;;;;5.73;100.00;96404.56;5070011;28;20021;-75
2023/03/10 04:39:40;;;;;;;1999.90;999.90;;;;;;;5.75;100.00;96392.31;5075769;28;20542;-76
2023/03/10 04:42:06;;;;;;;1999.90;999.90;;;;;;;5.80;100.00;96386.75;5090059;28;20032;-75
2023/03/10 04:44:31;;;;;;;1999.90;999.90;;;;;;;5.77;100.00;96392.78;5089940;28;20028;-76
2023/03/10 04:46:58;;;;;;;1999.90;999.90;;;;;;;5.87;100.00;96389.09;5089589;28;20119;-76
2023/03/10 04:49:23;;;;;;;1999.90;999.90;;;;;;;6.00;100.00;96385.56;5089830;28;20396;-76
2023/03/10 04:51:49;;;;;;;1999.90;999.90;;;;;;;6.09;100.00;96375.59;5090564;28;20081;-76
2023/03/10 04:54:14;;;;;;;1999.90;999.90;;;;;;;6.04;100.00;96374.91;5088502;28;20046;-75
2023/03/10 04:56:39;;;;;;;1999.90;999.90;;;;;;;6.15;100.00;96363.50;5090337;28;20032;-75
2023/03/10 04:59:05;;;;;;;1999.90;999.90;;;;;;;6.19;100.00;96356.38;5088665;28;20020;-76
2023/03/10 05:01:31;;;;;;;1999.90;999.90;;;;;;;6.18;100.00;96349.31;5089660;28;20144;-76
2023/03/10 05:04:02;;;;;;;1999.90;999.90;;;;;;;6.19;100.00;96358.28;5088446;28;20032;-75
2023/03/10 05:06:29;;;;;;;1999.90;999.90;;;;;;;6.16;100.00;96359.69;5091215;28;20077;-73
2023/03/10 05:08:54;;;;;;;1999.90;999.90;;;;;;;6.15;100.00;96357.28;5089600;28;20487;-74
2023/03/10 05:11:20;;;;;;;1999.90;999.90;;;;;;;6.21;100.00;96354.13;5089693;28;20195;-79
2023/03/10 05:13:46;;;;;;;1999.90;999.90;;;;;;;6.15;100.00;96349.13;5089486;28;20135;-74
2023/03/10 05:16:17;;;;;;;1999.90;999.90;;;;;;;6.30;100.00;96346.06;5089144;28;20373;-75
2023/03/10 05:18:42;;;;;;;1999.90;999.90;;;;;;;6.35;100.00;96345.94;5089825;28;20476;-75
2023/03/10 05:21:08;;;;;;;1999.90;999.90;;;;;;;6.48;100.00;96345.88;5088412;28;20085;-75
2023/03/10 05:23:34;;;;;;;1999.90;999.90;;;;;;;6.48;100.00;96353.25;5089746;28;20107;-73
2023/03/10 05:26:08;;;;;;;1999.90;999.90;;;;;;;6.50;100.00;96352.91;5089470;28;20028;-73
2023/03/10 05:28:34;;;;;;;1999.90;999.90;;;;;;;6.53;100.00;96342.25;5089433;28;20039;-76
2023/03/10 05:30:59;;;;;;;1999.90;999.90;;;;;;;6.50;100.00;96333.91;5089273;28;20024;-75
2023/03/10 05:33:26;;;;;;;1999.90;999.90;;;;;;;6.53;100.00;96336.00;5089666;28;20035;-77
2023/03/10 05:35:51;;;;;;;1999.90;999.90;;;;;;;6.56;100.00;96327.25;5089676;28;20110;-75
2023/03/10 05:38:17;;;;;;;1999.90;999.90;;;;;;;6.49;100.00;96324.97;5089947;28;20655;-76
2023/03/10 05:40:43;;;;;;;1999.90;999.90;;;;;;;6.46;100.00;96328.28;5089575;28;20023;-75
2023/03/10 05:43:09;;;;;;;1999.90;999.90;;;;;;;6.57;100.00;96326.94;5089721;28;20070;-76
2023/03/10 05:45:35;;;;;;;1999.90;999.90;;;;;;;6.65;100.00;96322.66;5089686;28;20024;-76
2023/03/10 05:48:00;;;;;;;1999.90;999.90;;;;;;;6.62;100.00;96313.22;5092573;28;20446;-76
2023/03/10 05:50:26;;;;;;;1999.90;999.90;;;;;;;6.63;100.00;96306.69;5093478;28;20425;-76
2023/03/10 05:52:51;;;;;;;1999.90;999.90;;;;;;;6.73;100.00;96313.78;5093792;28;20016;-75
2023/03/10 05:55:18;;;;;;;1999.90;999.90;;;;;;;6.72;100.00;96307.53;5093855;28;20428;-75
2023/03/10 05:57:46;;;;;;;1999.90;999.90;;;;;;;6.88;100.00;96306.03;5093409;28;20024;-76
2023/03/10 06:00:13;;;;;;;1999.90;999.90;;;;;;;6.86;100.00;96296.59;5075099;28;20031;-76
2023/03/10 06:02:39;;;;;;;1999.90;999.90;;;;;;;6.94;100.00;96293.09;5092778;28;20032;-75
2023/03/10 06:05:07;;;;;;;1999.90;999.90;;;;;;;7.09;100.00;96289.16;5093288;28;20031;-76
2023/03/10 06:07:32;;;;;;;1999.90;999.90;;;;;;;7.08;100.00;96276.69;5093217;28;20028;-75
2023/03/10 06:09:58;;;;;;;1999.90;999.90;;;;;;;7.22;100.00;96286.34;5093122;28;20537;-76
2023/03/10 06:12:24;;;;;;;1999.90;999.90;;;;;;;7.30;100.00;96290.22;5092962;28;20039;-76
2023/03/10 06:14:49;;;;;;;1999.90;999.90;;;;;;;7.42;100.00;96285.75;5092553;28;20066;-76
2023/03/10 06:17:14;;;;;;;1999.90;999.90;;;;;;;7.63;100.00;96290.59;5092391;28;20024;-76
2023/03/10 06:19:40;;;;;;;1999.90;999.90;;;;;;;7.64;100.00;96284.84;5092618;28;20074;-75
2023/03/10 06:22:05;;;;;;;1999.90;999.90;;;;;;;7.78;100.00;96281.97;5104473;28;20134;-76
2023/03/10 06:24:30;;;;;;;1999.90;999.90;;;;;;;7.72;100.00;96278.63;5093376;28;20036;-76
2023/03/10 06:26:56;;;;;;;1999.90;999.90;;;;;;;7.63;100.00;96287.88;5097738;28;20134;-75
2023/03/10 06:29:21;;;;;;;1999.90;999.90;;;;;;;7.48;100.00;96287.22;5107480;28;20031;-76
2023/03/10 06:31:47;;;;;;;1999.90;999.90;;;;;;;7.70;100.00;96278.16;5090635;28;20028;-75
2023/03/10 06:34:12;;;;;;;1999.90;999.90;;;;;;;7.82;100.00;96272.88;5092028;28;20024;-75
2023/03/10 06:36:39;;;;;;;1999.90;999.90;;;;;;;7.85;100.00;96257.81;5091992;28;20023;-75
2023/03/10 06:39:05;;;;;;;1999.90;999.90;;;;;;;7.97;100.00;96271.59;5092268;28;20039;-75
2023/03/10 06:41:30;;;;;;;1999.90;999.90;;;;;;;8.08;100.00;96259.28;5091649;28;20020;-75
2023/03/10 06:43:56;;;;;;;1999.90;999.90;;;;;;;8.17;100.00;96261.97;5100661;28;20059;-76
2023/03/10 06:46:21;;;;;;;1999.90;999.90;;;;;;;8.42;100.00;96272.09;5092341;28;20510;-76
2023/03/10 06:48:48;;;;;;;1999.90;999.90;;;;;;;8.34;100.00;96268.25;5093284;28;20119;-74
2023/03/10 06:51:16;;;;;;;1999.90;999.90;;;;;;;8.60;100.00;96269.00;5092942;28;20024;-74
2023/03/10 06:53:42;;;;;;;1999.90;999.90;;;;;;;8.50;100.00;96241.28;5093786;28;20048;-74
2023/03/10 06:56:11;;;;;;;1999.90;999.90;;;;;;;8.72;100.00;96253.91;5092268;28;20020;-75
2023/03/10 06:58:37;;;;;;;1999.90;999.90;;;;;;;8.75;100.00;96247.78;5093177;28;20472;-74
2023/03/10 07:01:03;;;;;;;1999.90;999.90;;;;;;;9.04;100.00;96236.94;5092325;28;20028;-75
2023/03/10 07:03:28;;;;;;;1999.90;999.90;;;;;;;9.36;100.00;96239.03;5090089;28;20024;-74
2023/03/10 07:05:57;;;;;;;1999.90;999.90;;;;;;;9.97;100.00;96239.41;5091938;28;20073;-74
2023/03/10 07:08:23;;;;;;;1999.90;999.90;;;;;;;10.28;100.00;96245.28;5092229;28;20023;-74
2023/03/10 07:10:49;;;;;;;1999.90;999.90;;;;;;;10.41;100.00;96235.19;5092257;28;20053;-75
2023/03/10 07:13:16;;;;;;;1999.90;999.90;;;;;;;10.34;100.00;96234.97;5091718;28;20040;-74
2023/03/10 07:15:42;;;;;;;1999.90;999.90;;;;;;;10.15;100.00;96235.44;5092141;28;20070;-75
2023/03/10 07:18:08;;;;;;;1999.90;999.90;;;;;;;10.38;100.00;96233.13;5092765;28;20043;-76
2023/03/10 07:20:33;;;;;;;1999.90;999.90;;;;;;;10.84;100.00;96219.13;5092115;28;20051;-75
2023/03/10 07:22:58;;;;;;;1999.90;999.90;;;;;;;11.28;100.00;96206.50;5092437;28;20024;-74
2023/03/10 07:25:24;;;;;;;1999.90;999.90;;;;;;;11.41;100.00;96216.31;5091841;28;20469;-74
2023/03/10 07:27:50;;;;;;;1999.90;999.90;;;;;;;11.62;100.00;96195.06;5090510;28;20028;-75
2023/03/10 07:30:15;;;;;;;1999.90;999.90;;;;;;;11.98;100.00;96196.16;5092191;28;20031;-75
2023/03/10 07:32:41;;;;;;;1999.90;999.90;;;;;;;12.25;100.00;96195.34;5091986;28;20032;-75
2023/03/10 07:35:08;;;;;;;1999.90;999.90;;;;;;;12.42;100.00;96206.03;5091777;28;20035;-75
2023/03/10 07:37:37;;;;;;;1999.90;999.90;;;;;;;13.28;100.00;96196.91;5091830;28;20058;-75
2023/03/10 07:40:03;;;;;;;1999.90;999.90;;;;;;;14.03;100.00;96204.91;5090925;28;20030;-76
2023/03/10 07:42:28;;;;;;;1999.90;999.90;;;;;;;14.63;100.00;96202.63;5090024;28;20055;-76
2023/03/10 07:44:54;;;;;;;1999.90;999.90;;;;;;;15.13;100.00;96188.53;5091672;28;20055;-75
2023/03/10 07:47:19;;;;;;;1999.90;999.90;;;;;;;15.65;100.00;96193.38;5091433;28;20119;-76
2023/03/10 07:49:45;;;;;;;1999.90;999.90;;;;;;;16.99;92.65;96189.53;5091566;28;20380;-76
2023/03/10 07:52:15;;;;;;;1999.90;999.90;;;;;;;19.06;80.73;96199.47;5090626;28;20036;-76
2023/03/10 07:54:41;;;;;;;1999.90;999.90;;;;;;;20.66;67.70;96200.09;5090227;28;20086;-75
2023/03/10 07:57:06;;;;;;;1999.90;999.90;;;;;;;21.54;58.81;96209.91;5091197;28;20024;-76
2023/03/10 07:59:32;;;;;;;1999.90;999.90;;;;;;;21.83;56.44;96200.13;5091551;28;20119;-75
2023/03/10 08:01:57;;;;;;;1999.90;999.90;;;;;;;22.03;55.28;96198.38;5091521;28;20524;-76
2023/03/10 08:04:22;;;;;;;1999.90;999.90;;;;;;;22.12;53.40;96187.53;5091389;28;20024;-75
2023/03/10 08:06:47;;;;;;;1999.90;999.90;;;;;;;21.52;55.81;96190.81;5091491;28;20055;-76
2023/03/10 08:09:13;;;;;;;1999.90;999.90;;;;;;;21.52;56.04;96201.19;5091129;28;20058;-76
2023/03/10 08:11:38;;;;;;;1999.90;999.90;;;;;;;21.08;56.21;96183.16;5091171;28;20472;-75
2023/03/10 08:14:04;;;;;;;1999.90;999.90;;;;;;;21.09;56.84;96187.56;5090729;28;20075;-76
2023/03/10 08:16:29;;;;;;;1999.90;999.90;;;;;;;20.81;57.11;96185.72;5090446;28;20387;-75
2023/03/10 08:18:54;;;;;;;1999.90;999.90;;;;;;;19.94;60.53;96178.47;5090508;28;20024;-76
2023/03/10 08:21:20;;;;;;;1999.90;999.90;;;;;;;19.08;64.08;96163.81;5090209;28;20020;-76
2023/03/10 08:23:45;;;;;;;1999.90;999.90;;;;;;;18.75;67.06;96164.16;5090251;28;20028;-76
2023/03/10 08:26:16;;;;;;;1999.90;999.90;;;;;;;19.37;64.94;96163.84;5090117;28;20024;-75
2023/03/10 08:28:43;;;;;;;1999.90;999.90;;;;;;;19.14;65.39;96161.44;5090178;28;20028;-75
2023/03/10 08:31:14;;;;;;;1999.90;999.90;;;;;;;19.48;64.78;96157.16;5090164;28;20032;-76
2023/03/10 08:33:41;;;;;;;1999.90;999.90;;;;;;;20.01;63.02;96151.50;5088876;28;20069;-76
2023/03/10 08:36:18;;;;;;;1999.90;999.90;;;;;;;21.20;58.57;96162.47;5090371;28;20024;-72
2023/03/10 08:38:45;;;;;;;1999.90;999.90;;;;;;;21.87;55.75;96157.13;5090178;28;20250;-76
2023/03/10 08:41:19;;;;;;;1999.90;999.90;;;;;;;22.76;52.25;96168.09;5092378;28;20388;-75
2023/03/10 08:43:46;;;;;;;1999.90;999.90;;;;;;;22.10;53.78;96159.31;5090302;28;20036;-73
2023/03/10 08:46:11;;;;;;;1999.90;999.90;;;;;;;20.71;57.87;96155.19;5090352;28;20480;-75
2023/03/10 08:48:38;;;;;;;1999.90;999.90;;;;;;;19.35;64.09;96150.38;5089946;28;20028;-75
2023/03/10 08:51:05;;;;;;;1999.90;999.90;;;;;;;17.63;71.72;96129.25;5089908;28;20020;-76
2023/03/10 08:53:32;;;;;;;1999.90;999.90;;;;;;;17.03;75.35;96126.81;5090041;28;20024;-76
2023/03/10 08:55:57;;;;;;;1999.90;999.90;;;;;;;16.46;79.09;96117.16;5089952;28;20111;-75
2023/03/10 08:58:23;;;;;;;1999.90;999.90;;;;;;;16.48;79.31;96119.53;5089936;28;20532;-75
2023/03/10 09:00:49;;;;;;;1999.90;999.90;;;;;;;16.02;81.69;96108.78;5089814;28;20035;-75
2023/03/10 09:03:15;;;;;;;1999.90;999.90;;;;;;;15.41;85.64;96097.31;5088405;28;20507;-75
2023/03/10 09:05:40;;;;;;;1999.90;999.90;;;;;;;15.39;86.20;96097.66;5089653;28;20032;-75
2023/03/10 09:08:07;;;;;;;1999.90;999.90;;;;;;;15.28;87.27;96098.69;5090400;28;20024;-75
2023/03/10 09:10:33;;;;;;;1999.90;999.90;;;;;;;14.94;89.88;96095.03;5089658;28;20023;-75
2023/03/10 09:12:59;;;;;;;1999.90;999.90;;;;;;;14.87;90.99;96089.41;5048361;28;1174109;-75
2023/03/10 09:15:24;;;;;;;1999.90;999.90;;;;;;;14.95;91.45;96097.41;5090522;28;20040;-75
2023/03/10 09:17:49;;;;;;;1999.90;999.90;;;;;;;15.01;90.02;96087.66;5090448;28;20473;-76
2023/03/10 09:20:15;;;;;;;1999.90;999.90;;;;;;;15.12;89.48;96081.53;5090432;28;20130;-76
2023/03/10 09:22:41;;;;;;;1999.90;999.90;;;;;;;15.43;87.68;96072.94;5091800;28;20020;-74
2023/03/10 09:25:08;;;;;;;1999.90;999.90;;;;;;;16.70;80.15;96082.72;5094348;28;20484;-74
2023/03/10 09:27:34;;;;;;;1999.90;999.90;;;;;;;17.24;75.85;96084.72;5092964;28;20393;-76
2023/03/10 09:29:59;;;;;;;1999.90;999.90;;;;;;;17.29;75.00;96086.34;5094196;28;20031;-76
2023/03/10 09:32:25;;;;;;;1999.90;999.90;;;;;;;17.10;75.75;96090.16;5094098;28;20073;-76
2023/03/10 09:34:50;;;;;;;1999.90;999.90;;;;;;;16.37;78.49;96077.25;5094038;28;20028;-76
2023/03/10 09:37:16;;;;;;;1999.90;999.90;;;;;;;16.01;81.70;96068.56;5094457;28;20024;-75
2023/03/10 09:39:42;;;;;;;1999.90;999.90;;;;;;;15.63;85.04;96063.38;5094616;28;20050;-75
2023/03/10 09:42:07;;;;;;;1999.90;999.90;;;;;;;15.43;89.75;96059.16;5094350;28;20031;-75
2023/03/10 09:45:07;;;;;;;1999.90;999.90;;;;;;;15.34;90.33;96061.38;5092890;28;20024;-77
2023/03/10 09:47:56;;;;;;;1999.90;999.90;;;;;;;15.63;92.99;96052.34;5093906;28;20040;-76
2023/03/10 09:50:33;;;;;;;1999.90;999.90;;;;;;;15.64;93.80;96059.44;5093892;28;20118;-75
2023/03/10 09:53:12;;;;;;;1999.90;999.90;;;;;;;15.47;92.10;96035.19;5092717;28;20035;-75
2023/03/10 09:55:43;;;;;;;1999.90;999.90;;;;;;;15.48;92.91;96028.53;5094019;28;20032;-76
2023/03/10 09:58:35;;;;;;;1999.90;999.90;;;;;;;15.48;96.49;96031.28;5094010;28;20024;-76
2023/03/10 10:01:03;;;;;;;1999.90;999.90;;;;;;;15.29;98.44;96031.38;5094082;28;20492;-75
2023/03/10 10:03:51;;;;;;;1999.90;999.90;;;;;;;14.94;100.00;96035.22;5093281;28;20061;-74
2023/03/10 10:06:23;;;;;;;1999.90;999.90;;;;;;;14.81;100.00;96022.06;5093976;28;20024;-75
2023/03/10 10:08:57;;;;;;;1999.90;999.90;;;;;;;14.96;100.00;96021.09;5094569;28;20046;-75
2023/03/10 10:11:22;;;;;;;1999.90;999.90;;;;;;;14.98;98.29;96016.81;5093909;28;20027;-75
2023/03/10 10:13:50;;;;;;;1999.90;999.90;;;;;;;15.01;97.38;96009.75;5093883;28;20047;-76
2023/03/10 10:16:18;;;;;;;1999.90;999.90;;;;;;;15.06;97.83;96009.44;5094085;28;20119;-75
2023/03/10 10:18:53;;;;;;;1999.90;999.90;;;;;;;15.00;100.00;96003.44;5093540;28;20035;-76
2023/03/10 10:21:46;;;;;;;1999.90;999.90;;;;;;;15.21;100.00;96008.47;5093738;28;20032;-75
2023/03/10 10:24:12;;;;;;;1999.90;999.90;;;;;;;15.32;96.48;96008.59;5094277;28;20059;-75
2023/03/10 10:26:37;;;;;;;1999.90;999.90;;;;;;;15.24;93.01;96012.44;5098163;28;20024;-76
2023/03/10 10:29:15;;;;;;;1999.90;999.90;;;;;;;15.17;95.60;96006.81;5096408;28;20118;-76
2023/03/10 10:31:40;;;;;;;1999.90;999.90;;;;;;;15.22;95.83;96003.78;5093142;28;20036;-76
2023/03/10 10:34:18;;;;;;;1999.90;999.90;;;;;;;14.98;97.47;96000.28;5092795;28;20031;-76
2023/03/10 10:36:50;;;;;;;1999.90;999.90;;;;;;;14.50;100.00;95998.38;5093044;28;20028;-75
2023/03/10 10:39:27;;;;;;;1999.90;999.90;;;;;;;14.18;100.00;96003.31;5093326;28;20512;-75
2023/03/10 10:41:52;;;;;;;1999.90;999.90;;;;;;;13.85;100.00;95992.88;5092988;28;20032;-75
2023/03/10 10:44:18;;;;;;;1999.90;999.90;;;;;;;13.68;100.00;95993.34;5091454;28;20093;-75
2023/03/10 10:46:55;;;;;;;1999.90;999.90;;;;;;;13.46;100.00;95991.34;5092706;28;20388;-76
2023/03/10 10:49:30;;;;;;;1999.90;999.90;;;;;;;13.47;100.00;95992.16;5092542;28;20032;-75
2023/03/10 10:52:04;;;;;;;1999.90;999.90;;;;;;;13.49;100.00;95990.63;5092765;28;20158;-75
2023/03/10 10:54:42;;;;;;;1999.90;999.90;;;;;;;13.49;100.00;95979.63;5092686;28;20028;-75